This is the latest recevied weather packets stored in our database for station/object YO6IKB-10. If no packets are shown the sender has not sent any weather packets the latest 10 day(s).
| Time | Temp. | Humidity | Pressure | Rain* | Wind** | Luminosity | Snow |
|---|---|---|---|---|---|---|---|
| 1777907497 | 22.78° C | 50% | 1010.9 hPa | 0 mm | - | - | - |
| 1777907197 | 21.67° C | 53% | 1010.9 hPa | 0 mm | - | - | - |
| 1777906896 | 20° C | 56% | 1010.9 hPa | 0 mm | - | - | - |
| 1777906596 | 19.44° C | 55% | 1011 hPa | 0 mm | - | - | - |
| 1777906296 | 19.44° C | 51% | 1011.1 hPa | 0 mm | - | - | - |
| 1777905995 | 21.11° C | 46% | 1011.1 hPa | 0 mm | - | - | - |
| 1777905695 | 22.78° C | 44% | 1011.3 hPa | 0 mm | - | - | - |
| 1777905395 | 22.78° C | 41% | 1011.2 hPa | 0 mm | - | - | - |
| 1777905095 | 23.33° C | 40% | 1011.2 hPa | 0 mm | - | - | - |
| 1777904794 | 23.33° C | 40% | 1011.1 hPa | 0 mm | - | - | - |
| 1777904494 | 23.33° C | 40% | 1011.1 hPa | 0 mm | - | - | - |
| 1777904194 | 23.33° C | 40% | 1011.1 hPa | 0 mm | - | - | - |
| 1777903893 | 23.33° C | 40% | 1011.4 hPa | 0 mm | - | - | - |
| 1777903593 | 23.33° C | 41% | 1011.4 hPa | 0 mm | - | - | - |
| 1777903293 | 23.33° C | 41% | 1011.4 hPa | 0 mm | - | - | - |
| 1777902992 | 22.78° C | 41% | 1011.5 hPa | 0 mm | - | - | - |
| 1777902692 | 23.33° C | 41% | 1011.6 hPa | 0 mm | - | - | - |
| 1777902392 | 23.33° C | 40% | 1011.7 hPa | 0 mm | - | - | - |
| 1777902092 | 23.33° C | 40% | 1011.6 hPa | 0 mm | - | - | - |
| 1777901791 | 23.33° C | 40% | 1011.6 hPa | 0 mm | - | - | - |
| 1777901491 | 23.33° C | 40% | 1011.7 hPa | 0 mm | - | - | - |
| 1777901191 | 23.33° C | 40% | 1011.7 hPa | 0 mm | - | - | - |
| 1777900890 | 23.89° C | 39% | 1011.6 hPa | 0 mm | - | - | - |
| 1777900590 | 24.44° C | 39% | 1011.7 hPa | 0 mm | - | - | - |
| 1777900290 | 24.44° C | 39% | 1011.8 hPa | 0 mm | - | - | - |
* Rain latest hour (hover to see other rain measurements)
** Current wind speed in m/s (hover to see current wind gust speed)